SBOSBO HAM / EDDH
Speedbird OnlineSpeedbird Online HAM / EDDH

Hamburg Airport
15:45 7°C

Location Hamburg, Germany
Latitude: 53.630401611328
Longitude: 9.9882297515869
Web Airport Website | Wikipedia
Altitude 16 Meter / 53 Feet
Distance 707 KM / 439 Miles
from London.
Time Zone UTC +1 hours (Europe/Berlin)
Codes IATA: HAM
ICAO: EDDH
Currency £1 equals EUR 1.14
Runways
RunwayLength (m)Surface
053250Asphalt
153666Asphalt
233250Asphalt
333666Asphalt
Radio
TypeDescriptionFrequency
AFISLANGEN INFORMATION125.1
ATISATIS123.125
DIRDIRECTOR118.2
GNDGND121.8
RDRBREMEN RADAR134.25
RMPAPRON121.7
TWRTWR126.85
Live ATC
METAR EDDH 311420Z AUTO 25014KT 9999 BKN011 BKN016 07/06 Q1009 TEMPO 26020G30KT 4500 SHRA BKN015CB
TAF TAF COR EDDH 311152Z 3112/0118 25014KT 9999 BKN012 TEMPO 3112/3115 25015G25KT 2000 DZRA BKN005 BECMG 3113/3115 26015G25KT SCT015 PROB30 TEMPO 3116/0118 30020G35KT 4500 SHRA BKN013CB BECMG 3118/3120 27014KT
Weather As Of 31 Jan 2023 15:45
Description Light rain
Wind 33 km/h from West (250°)
Cloud Cover 75%
Precipitation Rain: none, Snow: none
Sunrise 08:08
Sunset 16:58
Lounges Hamburg Airport Lounge , Airport Plaza
Rotations During the last 90 days there were
305 flights from LHR
307 flights to LHR



Support Speedbird Online

© 2017-2023 Speedbird Online